Time;durP1;ratioP1;P1;durP2;ratioP2;P2;SDS_P1;SDS_P2;PMS_P1;PMS_P2;Temp;Humidity;BMP_temperature;BMP_pressure;BME280_temperature;BME280_humidity;BME280_pressure;Samples;Min_cycle;Max_cycle;Signal;HPM_P1;HPM_P2
2021/01/10 00:00:29;;;;;;;8.63;3.83;;;;;;;;;;5113242;28;20118;-56
2021/01/10 00:02:56;;;;;;;4.40;3.37;;;;;;;;;;5113286;28;20023;-56
2021/01/10 00:05:27;;;;;;;6.57;3.23;;;;;;;;;;5113302;28;20031;-56
2021/01/10 00:07:55;;;;;;;7.70;4.00;;;;;;;;;;5113102;28;20024;-56
2021/01/10 00:10:22;;;;;;;7.27;4.40;;;;;;;;;;5113562;28;20027;-56
2021/01/10 00:13:04;;;;;;;7.53;4.30;;;;;;;;;;5113496;27;20273;-57
2021/01/10 00:15:32;;;;;;;9.90;5.40;;;;;;;;;;5093011;28;20078;-56
2021/01/10 00:17:58;;;;;;;8.40;4.87;;;;;;;;;;5112930;28;20019;-57
2021/01/10 00:20:27;;;;;;;6.27;4.30;;;;;;;;;;5113145;28;20367;-56
2021/01/10 00:22:54;;;;;;;15.53;4.30;;;;;;;;;;5113092;28;20481;-56
2021/01/10 00:25:21;;;;;;;8.27;4.03;;;;;;;;;;5113189;28;20020;-56
2021/01/10 00:27:48;;;;;;;8.00;4.23;;;;;;;;;;5113143;28;20485;-56
2021/01/10 00:30:17;;;;;;;10.03;5.10;;;;;;;;;;5113064;28;20028;-56
2021/01/10 00:32:54;;;;;;;7.47;4.20;;;;;;;;;;5113024;28;20053;-56
2021/01/10 00:35:21;;;;;;;7.00;4.10;;;;;;;;;;5112980;28;20470;-56
2021/01/10 00:37:48;;;;;;;7.77;4.00;;;;;;;;;;5112973;28;20023;-56
2021/01/10 00:40:16;;;;;;;9.40;4.37;;;;;;;;;;5112883;28;20483;-56
2021/01/10 00:42:43;;;;;;;12.50;6.10;;;;;;;;;;5112919;28;20060;-56
2021/01/10 00:45:10;;;;;;;13.27;6.57;;;;;;;;;;5112904;28;20024;-56
2021/01/10 00:47:37;;;;;;;10.93;7.03;;;;;;;;;;5112896;28;20389;-56
2021/01/10 00:50:05;;;;;;;8.77;5.33;;;;;;;;;;5112884;28;20047;-56
2021/01/10 00:52:31;;;;;;;9.63;5.50;;;;;;;;;;5112828;28;20355;-56
2021/01/10 00:54:58;;;;;;;16.83;5.83;;;;;;;;;;5112751;28;20024;-56
2021/01/10 00:57:25;;;;;;;8.73;5.07;;;;;;;;;;5112779;28;20023;-56
2021/01/10 00:59:52;;;;;;;9.47;5.17;;;;;;;;;;5112684;28;20050;-56
2021/01/10 01:02:19;;;;;;;11.30;6.43;;;;;;;;;;5112765;28;20379;-56
2021/01/10 01:04:47;;;;;;;10.63;5.93;;;;;;;;;;5116646;28;20023;-56
2021/01/10 01:07:14;;;;;;;13.43;6.70;;;;;;;;;;5116553;28;20437;-56
2021/01/10 01:09:41;;;;;;;21.77;9.20;;;;;;;;;;5116387;28;20093;-56
2021/01/10 01:12:08;;;;;;;20.60;8.43;;;;;;;;;;5116362;28;20030;-56
2021/01/10 01:14:41;;;;;;;13.70;7.57;;;;;;;;;;5116949;27;20044;-56
2021/01/10 01:17:08;;;;;;;15.03;8.10;;;;;;;;;;5116380;28;20016;-56
2021/01/10 01:19:35;;;;;;;18.63;8.60;;;;;;;;;;5116211;28;20034;-56
2021/01/10 01:22:02;;;;;;;16.10;7.03;;;;;;;;;;5116311;28;20064;-56
2021/01/10 01:24:28;;;;;;;12.33;7.67;;;;;;;;;;5116176;28;20016;-56
2021/01/10 01:26:55;;;;;;;21.03;8.03;;;;;;;;;;5116534;28;20099;-56
2021/01/10 01:29:22;;;;;;;13.40;8.30;;;;;;;;;;5115965;28;20031;-56
2021/01/10 01:31:49;;;;;;;12.27;8.90;;;;;;;;;;5116149;28;20019;-56
2021/01/10 01:34:16;;;;;;;13.97;7.80;;;;;;;;;;5116017;28;20015;-56
2021/01/10 01:36:42;;;;;;;14.33;7.93;;;;;;;;;;5115942;28;20015;-56
2021/01/10 01:39:09;;;;;;;12.67;7.30;;;;;;;;;;5115934;28;20015;-56
2021/01/10 01:41:37;;;;;;;14.53;7.67;;;;;;;;;;5115776;28;20035;-56
2021/01/10 01:44:04;;;;;;;11.10;6.90;;;;;;;;;;5115818;28;20024;-56
2021/01/10 01:46:32;;;;;;;10.97;6.80;;;;;;;;;;5115810;28;20030;-56
2021/01/10 01:48:59;;;;;;;15.03;8.20;;;;;;;;;;5115600;28;20409;-56
2021/01/10 01:51:26;;;;;;;9.97;5.57;;;;;;;;;;5115961;28;20359;-56
2021/01/10 01:53:53;;;;;;;13.67;7.43;;;;;;;;;;5115597;28;20072;-56
2021/01/10 01:56:20;;;;;;;14.40;6.40;;;;;;;;;;5115683;28;20030;-56
2021/01/10 01:59:13;;;;;;;13.83;6.60;;;;;;;;;;5115413;28;20033;-56
2021/01/10 02:01:40;;;;;;;11.33;6.60;;;;;;;;;;5106762;28;20043;-56
2021/01/10 02:04:25;;;;;;;13.67;8.17;;;;;;;;;;5115521;28;20028;-56
2021/01/10 02:07:05;;;;;;;13.13;6.85;;;;;;;;;;5115358;28;20114;-56
2021/01/10 02:09:33;;;;;;;11.67;7.40;;;;;;;;;;5115277;28;20075;-56
2021/01/10 02:12:02;;;;;;;9.87;6.57;;;;;;;;;;5115228;28;20016;-56
2021/01/10 02:14:30;;;;;;;11.20;6.73;;;;;;;;;;5115517;27;20054;-56
2021/01/10 02:16:57;;;;;;;14.87;6.90;;;;;;;;;;5115327;28;20027;-56
2021/01/10 02:19:28;;;;;;;11.37;6.77;;;;;;;;;;5115174;28;20068;-56
2021/01/10 02:21:57;;;;;;;10.70;6.83;;;;;;;;;;5115176;28;20072;-56
2021/01/10 02:24:24;;;;;;;11.83;7.67;;;;;;;;;;5115069;28;20024;-56
2021/01/10 02:26:52;;;;;;;14.77;7.80;;;;;;;;;;5115085;28;20068;-56
2021/01/10 02:29:19;;;;;;;14.43;6.70;;;;;;;;;;5114890;28;20028;-56
2021/01/10 02:31:46;;;;;;;13.47;5.47;;;;;;;;;;5114922;28;20030;-56
2021/01/10 02:34:14;;;;;;;8.77;5.73;;;;;;;;;;5114928;28;20028;-56
2021/01/10 02:36:41;;;;;;;11.33;5.77;;;;;;;;;;5114821;28;20020;-56
2021/01/10 02:39:23;;;;;;;14.53;6.37;;;;;;;;;;5114773;28;20020;-56
2021/01/10 02:41:52;;;;;;;9.90;5.57;;;;;;;;;;5114745;28;20039;-56
2021/01/10 02:44:28;;;;;;;9.93;6.17;;;;;;;;;;5114619;28;20028;-57
2021/01/10 02:46:55;;;;;;;15.93;6.27;;;;;;;;;;5114565;28;20028;-56
2021/01/10 02:49:22;;;;;;;12.07;6.43;;;;;;;;;;5114590;28;20023;-56
2021/01/10 02:51:52;;;;;;;13.43;5.97;;;;;;;;;;5114622;28;20031;-56
2021/01/10 02:54:19;;;;;;;10.00;6.17;;;;;;;;;;5114523;28;20016;-56
2021/01/10 02:56:49;;;;;;;10.83;6.07;;;;;;;;;;5114306;28;20385;-56
2021/01/10 02:59:17;;;;;;;10.63;5.63;;;;;;;;;;5114280;28;20364;-56
2021/01/10 03:01:45;;;;;;;11.43;5.20;;;;;;;;;;5114280;28;20046;-57
2021/01/10 03:04:12;;;;;;;9.73;5.30;;;;;;;;;;5114300;28;20405;-56
2021/01/10 03:06:40;;;;;;;15.97;6.17;;;;;;;;;;5114138;28;20435;-56
2021/01/10 03:09:07;;;;;;;7.87;4.90;;;;;;;;;;5114163;28;20111;-56
2021/01/10 03:11:34;;;;;;;10.27;5.10;;;;;;;;;;5114030;28;20032;-56
2021/01/10 03:14:10;;;;;;;8.60;5.60;;;;;;;;;;5095632;27;20505;-56
2021/01/10 03:16:37;;;;;;;10.70;6.43;;;;;;;;;;5113997;28;20028;-56
2021/01/10 03:19:04;;;;;;;9.90;6.03;;;;;;;;;;5113785;28;20141;-56
2021/01/10 03:21:31;;;;;;;10.83;6.10;;;;;;;;;;5113757;28;20043;-56
2021/01/10 03:23:58;;;;;;;9.97;6.20;;;;;;;;;;5113793;28;20036;-55
2021/01/10 03:26:25;;;;;;;12.80;5.30;;;;;;;;;;5113206;28;20557;-55
2021/01/10 03:28:51;;;;;;;7.93;5.30;;;;;;;;;;5095393;28;20474;-55
2021/01/10 03:31:18;;;;;;;12.67;7.13;;;;;;;;;;5113697;28;20225;-56
2021/01/10 03:33:48;;;;;;;10.13;6.03;;;;;;;;;;5113988;28;20085;-56
2021/01/10 03:36:15;;;;;;;12.43;5.90;;;;;;;;;;5113604;28;20034;-55
2021/01/10 03:38:42;;;;;;;12.60;5.90;;;;;;;;;;5095686;28;20016;-55
2021/01/10 03:41:09;;;;;;;12.33;5.23;;;;;;;;;;5113540;28;20038;-55
2021/01/10 03:43:37;;;;;;;11.77;5.93;;;;;;;;;;5113512;28;20023;-56
2021/01/10 03:46:04;;;;;;;8.73;5.63;;;;;;;;;;5113631;28;20016;-55
2021/01/10 03:48:33;;;;;;;10.07;6.17;;;;;;;;;;5113700;28;20107;-55
2021/01/10 03:51:00;;;;;;;24.63;6.47;;;;;;;;;;5113417;28;20069;-55
2021/01/10 03:53:27;;;;;;;10.67;5.30;;;;;;;;;;5113473;28;20028;-56
2021/01/10 03:55:53;;;;;;;11.33;6.07;;;;;;;;;;5095118;28;20486;-56
2021/01/10 03:58:20;;;;;;;10.93;6.10;;;;;;;;;;5113424;28;20419;-56
2021/01/10 04:00:47;;;;;;;11.07;7.07;;;;;;;;;;5113338;28;20386;-56
2021/01/10 04:03:14;;;;;;;11.00;5.73;;;;;;;;;;5113368;28;20019;-56
2021/01/10 04:05:40;;;;;;;8.03;5.80;;;;;;;;;;5113226;28;20049;-55
2021/01/10 04:08:07;;;;;;;13.97;6.50;;;;;;;;;;5113256;28;20035;-56
2021/01/10 04:10:34;;;;;;;9.73;6.27;;;;;;;;;;5113269;28;20047;-55
2021/01/10 04:13:01;;;;;;;8.70;6.27;;;;;;;;;;5113401;27;20490;-56
2021/01/10 04:15:28;;;;;;;13.47;6.63;;;;;;;;;;5113249;28;20601;-56
2021/01/10 04:17:54;;;;;;;10.70;6.03;;;;;;;;;;5113106;28;20027;-56
2021/01/10 04:20:21;;;;;;;9.87;5.60;;;;;;;;;;5113074;28;20024;-56
2021/01/10 04:22:48;;;;;;;9.60;5.83;;;;;;;;;;5094897;28;20390;-56
2021/01/10 04:25:15;;;;;;;13.63;6.30;;;;;;;;;;5113073;28;20516;-56
2021/01/10 04:27:41;;;;;;;13.07;5.27;;;;;;;;;;5113132;28;20094;-56
2021/01/10 04:30:08;;;;;;;8.60;4.77;;;;;;;;;;5113142;28;20103;-55
2021/01/10 04:32:35;;;;;;;6.90;4.73;;;;;;;;;;5112978;28;20028;-56
2021/01/10 04:35:02;;;;;;;11.87;4.90;;;;;;;;;;5113018;28;20023;-56
2021/01/10 04:37:29;;;;;;;13.97;5.60;;;;;;;;;;5114934;28;20084;-55
2021/01/10 04:39:55;;;;;;;8.80;6.13;;;;;;;;;;5098844;28;20028;-56
2021/01/10 04:42:23;;;;;;;10.57;6.03;;;;;;;;;;5117097;28;20046;-57
2021/01/10 04:44:50;;;;;;;9.63;5.03;;;;;;;;;;5117097;28;20043;-56
2021/01/10 04:47:16;;;;;;;8.73;5.07;;;;;;;;;;5116877;28;20027;-55
2021/01/10 04:49:44;;;;;;;8.60;5.63;;;;;;;;;;5116972;28;20016;-55
2021/01/10 04:52:10;;;;;;;6.67;4.17;;;;;;;;;;5116936;28;20046;-55
2021/01/10 04:54:42;;;;;;;9.50;4.67;;;;;;;;;;5116877;28;20023;-55
2021/01/10 04:57:13;;;;;;;7.77;4.97;;;;;;;;;;5116817;28;20050;-56
2021/01/10 04:59:43;;;;;;;9.73;5.70;;;;;;;;;;5116533;28;20053;-56
2021/01/10 05:02:16;;;;;;;9.57;5.70;;;;;;;;;;5116684;28;20028;-56
2021/01/10 05:04:43;;;;;;;9.73;5.00;;;;;;;;;;5116653;28;20020;-56
2021/01/10 05:07:14;;;;;;;8.00;4.37;;;;;;;;;;5116483;28;20030;-56
2021/01/10 05:09:42;;;;;;;9.17;4.10;;;;;;;;;;5116579;28;20027;-56
2021/01/10 05:12:12;;;;;;;8.87;4.43;;;;;;;;;;5116477;28;20027;-56
2021/01/10 05:14:39;;;;;;;8.93;4.50;;;;;;;;;;5116766;27;20086;-56
2021/01/10 05:17:08;;;;;;;9.10;4.87;;;;;;;;;;5116270;28;20069;-56
2021/01/10 05:19:38;;;;;;;8.83;4.90;;;;;;;;;;5116735;28;20038;-56
2021/01/10 05:22:09;;;;;;;10.60;4.63;;;;;;;;;;5116276;28;20039;-56
2021/01/10 05:24:39;;;;;;;9.03;4.77;;;;;;;;;;5116238;28;20102;-56
2021/01/10 05:27:06;;;;;;;10.57;4.50;;;;;;;;;;5116183;28;20031;-56
2021/01/10 05:29:43;;;;;;;8.83;4.10;;;;;;;;;;5116091;28;20027;-55
2021/01/10 05:32:10;;;;;;;8.27;4.60;;;;;;;;;;5116094;28;20104;-56
2021/01/10 05:34:37;;;;;;;11.10;4.90;;;;;;;;;;5108832;28;20381;-56
2021/01/10 05:37:16;;;;;;;8.27;4.33;;;;;;;;;;5116057;28;20516;-55
2021/01/10 05:42:37;;;;;;;7.90;4.00;;;;;;;;;;5108185;28;20035;-54
2021/01/10 05:45:04;;;;;;;7.70;3.90;;;;;;;;;;5115899;28;20024;-56
2021/01/10 05:47:38;;;;;;;13.27;4.37;;;;;;;;;;5115689;28;20028;-55
2021/01/10 05:50:14;;;;;;;8.88;3.65;;;;;;;;;;5115287;28;20016;-54
2021/01/10 05:52:41;;;;;;;8.83;4.40;;;;;;;;;;5115633;28;20024;-55
2021/01/10 05:55:10;;;;;;;6.33;4.10;;;;;;;;;;5115518;28;20091;-55
2021/01/10 05:57:38;;;;;;;8.43;4.00;;;;;;;;;;5115190;28;20034;-55
2021/01/10 06:00:05;;;;;;;6.47;3.93;;;;;;;;;;5115425;28;20027;-55
2021/01/10 06:02:36;;;;;;;7.30;3.83;;;;;;;;;;5115380;28;20473;-55
2021/01/10 06:05:19;;;;;;;5.37;3.13;;;;;;;;;;5115490;28;20027;-55
2021/01/10 06:07:48;;;;;;;7.07;3.23;;;;;;;;;;5097118;28;20496;-55
2021/01/10 06:10:28;;;;;;;7.27;3.37;;;;;;;;;;5115370;28;20031;-55
2021/01/10 06:13:02;;;;;;;4.93;3.17;;;;;;;;;;5115323;28;20032;-55
2021/01/10 06:15:32;;;;;;;6.10;3.00;;;;;;;;;;5115797;27;20052;-55
2021/01/10 06:18:01;;;;;;;7.80;3.40;;;;;;;;;;5115137;28;20125;-55
2021/01/10 06:20:29;;;;;;;5.67;3.00;;;;;;;;;;5115025;28;20082;-55
2021/01/10 06:22:56;;;;;;;5.53;2.77;;;;;;;;;;5115428;28;20095;-56
2021/01/10 06:25:24;;;;;;;6.03;2.57;;;;;;;;;;5115130;28;20027;-55
2021/01/10 06:28:11;;;;;;;6.17;3.13;;;;;;;;;;5115039;28;20629;-55
2021/01/10 06:30:39;;;;;;;4.40;2.40;;;;;;;;;;5115045;28;20488;-55
2021/01/10 06:33:07;;;;;;;6.00;2.70;;;;;;;;;;5114923;28;20470;-55
2021/01/10 06:35:43;;;;;;;4.53;2.60;;;;;;;;;;5114873;28;20382;-55
2021/01/10 06:38:11;;;;;;;5.27;3.23;;;;;;;;;;5114724;28;20028;-55
2021/01/10 06:40:40;;;;;;;5.83;2.73;;;;;;;;;;5114704;28;20032;-55
2021/01/10 06:43:08;;;;;;;5.07;2.60;;;;;;;;;;5114659;28;20023;-55
2021/01/10 06:45:35;;;;;;;6.03;2.50;;;;;;;;;;5114712;28;20103;-55
2021/01/10 06:48:03;;;;;;;4.73;2.33;;;;;;;;;;5114554;28;20026;-55
2021/01/10 06:50:31;;;;;;;3.13;1.77;;;;;;;;;;5114640;28;20381;-55
2021/01/10 06:53:07;;;;;;;3.73;1.90;;;;;;;;;;5114510;28;20024;-55
2021/01/10 06:55:34;;;;;;;3.17;2.00;;;;;;;;;;5114479;28;20024;-55
2021/01/10 06:58:10;;;;;;;5.53;2.50;;;;;;;;;;5114339;28;20020;-55
2021/01/10 07:01:00;;;;;;;5.87;2.77;;;;;;;;;;5113371;28;20108;-55
2021/01/10 07:03:27;;;;;;;5.60;2.80;;;;;;;;;;5104017;28;20524;-55
2021/01/10 07:06:06;;;;;;;5.30;2.57;;;;;;;;;;5114316;28;20088;-55
2021/01/10 07:08:34;;;;;;;3.63;2.33;;;;;;;;;;5114369;28;20073;-55
2021/01/10 07:11:19;;;;;;;3.93;2.03;;;;;;;;;;5114205;28;20019;-55
2021/01/10 07:13:46;;;;;;;2.95;1.90;;;;;;;;;;5114550;27;20395;-56
2021/01/10 07:16:22;;;;;;;5.30;2.00;;;;;;;;;;5114199;28;20523;-55
2021/01/10 07:18:52;;;;;;;4.17;2.10;;;;;;;;;;5113955;28;20076;-55
2021/01/10 07:21:31;;;;;;;3.03;2.03;;;;;;;;;;5113886;28;20039;-55
2021/01/10 07:24:16;;;;;;;2.93;1.70;;;;;;;;;;5113864;28;20103;-55
2021/01/10 07:26:45;;;;;;;4.05;2.22;;;;;;;;;;5114035;28;20062;-55
2021/01/10 07:29:29;;;;;;;3.90;2.00;;;;;;;;;;5113765;28;20111;-55
2021/01/10 07:31:57;;;;;;;4.53;2.35;;;;;;;;;;5113852;28;20051;-55
2021/01/10 07:34:24;;;;;;;3.53;2.10;;;;;;;;;;5113701;28;20027;-55
2021/01/10 07:36:52;;;;;;;5.67;1.80;;;;;;;;;;5113740;28;20012;-55
2021/01/10 07:39:20;;;;;;;3.43;1.97;;;;;;;;;;5113559;28;20020;-55
2021/01/10 07:41:47;;;;;;;3.83;2.27;;;;;;;;;;5113845;28;20046;-55
2021/01/10 07:44:17;;;;;;;3.60;2.03;;;;;;;;;;5113670;28;20058;-55
2021/01/10 07:46:57;;;;;;;4.40;2.60;;;;;;;;;;5113818;28;20102;-55
2021/01/10 07:49:25;;;;;;;7.67;2.50;;;;;;;;;;5113590;28;20024;-55
2021/01/10 07:51:52;;;;;;;3.90;2.47;;;;;;;;;;5113439;28;20027;-55
2021/01/10 07:54:39;;;;;;;6.13;2.40;;;;;;;;;;5113508;28;20088;-55
2021/01/10 07:57:25;;;;;;;4.33;2.10;;;;;;;;;;5113345;28;20052;-55
2021/01/10 08:00:08;;;;;;;6.97;1.97;;;;;;;;;;5113329;28;20047;-55
2021/01/10 08:02:47;;;;;;;3.03;1.80;;;;;;;;;;5112709;28;20031;-55
2021/01/10 08:05:15;;;;;;;4.47;2.03;;;;;;;;;;5113328;28;20101;-55
2021/01/10 08:07:46;;;;;;;3.40;2.20;;;;;;;;;;5113234;28;20032;-55
2021/01/10 08:10:14;;;;;;;3.67;2.00;;;;;;;;;;5113377;28;20034;-55
2021/01/10 08:12:41;;;;;;;4.20;2.60;;;;;;;;;;5112887;28;20031;-55
2021/01/10 08:15:08;;;;;;;6.47;2.63;;;;;;;;;;5113953;27;20060;-55
2021/01/10 08:17:49;;;;;;;3.97;2.30;;;;;;;;;;5113361;28;20481;-55
2021/01/10 08:20:16;;;;;;;4.67;2.00;;;;;;;;;;5092819;28;20490;-55
2021/01/10 08:22:43;;;;;;;4.67;2.13;;;;;;;;;;5092865;28;20024;-55
2021/01/10 08:25:20;;;;;;;4.47;2.30;;;;;;;;;;5092702;28;20470;-55
2021/01/10 08:27:47;;;;;;;3.20;2.13;;;;;;;;;;5113127;28;20031;-55
2021/01/10 08:30:15;;;;;;;3.00;2.07;;;;;;;;;;5113106;28;20252;-55
2021/01/10 08:32:42;;;;;;;4.70;2.30;;;;;;;;;;5113120;28;20327;-55
2021/01/10 08:35:09;;;;;;;4.13;2.30;;;;;;;;;;5113056;28;20024;-55
2021/01/10 08:37:37;;;;;;;2.80;1.70;;;;;;;;;;5094781;28;20750;-55
2021/01/10 08:40:08;;;;;;;7.93;2.10;;;;;;;;;;5112922;28;20280;-55
2021/01/10 08:42:35;;;;;;;3.83;1.93;;;;;;;;;;5112861;28;20285;-55
2021/01/10 08:45:22;;;;;;;4.93;2.00;;;;;;;;;;5112981;28;20240;-55
2021/01/10 08:47:49;;;;;;;6.80;2.40;;;;;;;;;;5112953;28;20263;-55
2021/01/10 08:50:16;;;;;;;3.27;1.90;;;;;;;;;;5113051;28;20602;-55
2021/01/10 08:52:59;;;;;;;5.87;2.00;;;;;;;;;;5112806;28;20248;-55
2021/01/10 08:55:31;;;;;;;7.97;2.90;;;;;;;;;;5112863;28;20701;-55
2021/01/10 08:57:57;;;;;;;4.43;2.40;;;;;;;;;;5112764;28;20611;-55
2021/01/10 09:00:25;;;;;;;5.70;3.33;;;;;;;;;;5112739;28;20737;-55
2021/01/10 09:02:52;;;;;;;4.47;2.73;;;;;;;;;;5112976;28;20599;-55
2021/01/10 09:05:26;;;;;;;4.43;3.07;;;;;;;;;;5112802;28;20248;-54
2021/01/10 09:08:02;;;;;;;4.97;2.80;;;;;;;;;;5112627;28;20247;-55
2021/01/10 09:10:31;;;;;;;4.63;2.60;;;;;;;;;;5112812;28;20267;-55
2021/01/10 09:12:59;;;;;;;6.83;3.07;;;;;;;;;;5112557;28;20256;-55
2021/01/10 09:15:31;;;;;;;5.23;3.00;;;;;;;;;;5113289;27;20280;-55
2021/01/10 09:18:30;;;;;;;3.77;2.20;;;;;;;;;;5112905;28;20248;-55
2021/01/10 09:21:01;;;;;;;5.17;2.80;;;;;;;;;;5067839;28;20292;-55
2021/01/10 09:23:29;;;;;;;3.60;2.30;;;;;;;;;;5112845;28;20331;-55
2021/01/10 09:25:56;;;;;;;5.00;2.80;;;;;;;;;;5116246;28;20253;-55
2021/01/10 09:28:24;;;;;;;4.60;2.67;;;;;;;;;;5116181;28;20259;-55
2021/01/10 09:30:54;;;;;;;3.70;2.50;;;;;;;;;;5116448;28;20282;-55
2021/01/10 09:33:28;;;;;;;5.27;3.13;;;;;;;;;;5116159;28;20251;-55
2021/01/10 09:35:55;;;;;;;6.57;3.27;;;;;;;;;;5116450;28;20276;-55
2021/01/10 09:38:23;;;;;;;5.77;2.57;;;;;;;;;;5115903;28;20283;-55
2021/01/10 09:41:19;;;;;;;4.53;3.13;;;;;;;;;;5115960;28;20670;-55
2021/01/10 09:43:47;;;;;;;5.50;3.20;;;;;;;;;;5088578;28;20649;-55
2021/01/10 09:46:32;;;;;;;5.80;3.60;;;;;;;;;;5115911;28;20513;-55
2021/01/10 09:49:00;;;;;;;4.22;2.80;;;;;;;;;;5115808;28;20248;-55
2021/01/10 09:51:47;;;;;;;4.87;3.07;;;;;;;;;;5115695;28;20063;-55
2021/01/10 09:54:18;;;;;;;5.17;2.70;;;;;;;;;;5101967;28;20335;-55
2021/01/10 09:56:47;;;;;;;5.13;2.80;;;;;;;;;;5115611;28;20267;-55
2021/01/10 09:59:32;;;;;;;6.40;3.00;;;;;;;;;;5115756;28;20270;-55
2021/01/10 10:02:00;;;;;;;4.40;2.97;;;;;;;;;;5115593;28;20284;-55
2021/01/10 10:04:30;;;;;;;5.27;3.13;;;;;;;;;;5115793;28;20032;-55
2021/01/10 10:06:56;;;;;;;7.17;4.27;;;;;;;;;;5115242;28;20640;-55
2021/01/10 10:09:23;;;;;;;6.33;3.70;;;;;;;;;;5115411;28;20249;-55
2021/01/10 10:12:06;;;;;;;4.90;2.90;;;;;;;;;;5115426;28;20313;-55
2021/01/10 10:14:33;;;;;;;4.90;3.23;;;;;;;;;;5115819;27;20284;-55
2021/01/10 10:17:00;;;;;;;9.80;3.80;;;;;;;;;;5115150;28;20251;-55
2021/01/10 10:19:26;;;;;;;6.67;3.83;;;;;;;;;;5096989;28;20750;-55
2021/01/10 10:21:53;;;;;;;5.37;3.23;;;;;;;;;;5115412;28;20288;-54
2021/01/10 10:24:20;;;;;;;5.17;3.30;;;;;;;;;;5096863;28;20750;-55
2021/01/10 10:26:47;;;;;;;5.27;3.47;;;;;;;;;;5115122;28;20472;-55
2021/01/10 10:29:14;;;;;;;4.13;2.67;;;;;;;;;;5115093;28;20264;-55
2021/01/10 10:31:40;;;;;;;5.63;3.37;;;;;;;;;;5114976;28;20720;-54
2021/01/10 10:34:07;;;;;;;4.20;3.23;;;;;;;;;;5114903;28;20730;-55
2021/01/10 10:36:34;;;;;;;6.83;3.50;;;;;;;;;;5114738;28;20664;-55
2021/01/10 10:39:01;;;;;;;9.70;4.30;;;;;;;;;;5114728;28;20738;-55
2021/01/10 10:41:33;;;;;;;5.57;3.40;;;;;;;;;;5114748;28;20637;-55
2021/01/10 10:43:59;;;;;;;6.07;3.23;;;;;;;;;;5114760;28;20252;-55
2021/01/10 10:46:26;;;;;;;6.20;4.20;;;;;;;;;;5114694;28;20301;-55
2021/01/10 10:48:53;;;;;;;7.77;4.03;;;;;;;;;;5114537;28;20576;-55
2021/01/10 10:51:20;;;;;;;7.40;4.23;;;;;;;;;;5114564;28;20737;-55
2021/01/10 10:53:46;;;;;;;8.60;4.40;;;;;;;;;;5114485;28;20723;-54
2021/01/10 10:56:13;;;;;;;7.13;4.07;;;;;;;;;;5114515;28;20252;-55
2021/01/10 10:58:40;;;;;;;7.27;3.83;;;;;;;;;;5114393;28;20254;-55
2021/01/10 11:01:07;;;;;;;7.17;4.17;;;;;;;;;;5114320;28;20472;-55
2021/01/10 11:03:33;;;;;;;5.70;4.50;;;;;;;;;;5114375;28;20248;-55
2021/01/10 11:06:00;;;;;;;6.93;3.90;;;;;;;;;;5114259;28;20327;-55
2021/01/10 11:08:27;;;;;;;5.50;3.30;;;;;;;;;;5114197;28;20247;-55
2021/01/10 11:10:54;;;;;;;5.87;3.43;;;;;;;;;;5114449;28;20263;-55
2021/01/10 11:13:20;;;;;;;5.50;4.17;;;;;;;;;;5114190;28;20260;-55
2021/01/10 11:15:47;;;;;;;6.87;3.93;;;;;;;;;;5114584;27;20279;-55
2021/01/10 11:18:14;;;;;;;7.17;3.43;;;;;;;;;;5114088;28;20240;-54
2021/01/10 11:20:41;;;;;;;5.80;3.80;;;;;;;;;;5113874;28;20284;-55
2021/01/10 11:23:08;;;;;;;6.07;3.70;;;;;;;;;;5113898;28;20248;-55
2021/01/10 11:25:36;;;;;;;6.03;3.57;;;;;;;;;;5113961;28;20279;-54
2021/01/10 11:28:03;;;;;;;7.40;4.13;;;;;;;;;;5113910;28;20240;-55
2021/01/10 11:30:30;;;;;;;8.97;4.00;;;;;;;;;;5113921;28;20254;-55
2021/01/10 11:32:57;;;;;;;6.30;4.20;;;;;;;;;;5113916;28;20240;-54
2021/01/10 11:35:23;;;;;;;5.80;4.00;;;;;;;;;;5113748;28;20674;-55
2021/01/10 11:37:53;;;;;;;6.80;4.00;;;;;;;;;;5114082;28;20594;-55
2021/01/10 11:40:20;;;;;;;6.10;3.87;;;;;;;;;;5113898;28;20283;-54
2021/01/10 11:42:50;;;;;;;5.83;3.40;;;;;;;;;;5113635;28;20248;-54
2021/01/10 11:45:16;;;;;;;5.63;3.67;;;;;;;;;;5113669;28;20244;-55
2021/01/10 11:47:43;;;;;;;7.10;4.60;;;;;;;;;;5113007;28;20260;-54
2021/01/10 11:50:10;;;;;;;5.70;3.47;;;;;;;;;;5113567;28;20248;-55
2021/01/10 11:52:37;;;;;;;6.20;3.90;;;;;;;;;;5113534;28;20364;-55
2021/01/10 11:55:04;;;;;;;6.30;3.53;;;;;;;;;;5113486;28;20240;-55
2021/01/10 11:57:30;;;;;;;5.20;3.63;;;;;;;;;;5113341;28;20245;-55
2021/01/10 11:59:57;;;;;;;7.10;3.73;;;;;;;;;;5113377;28;20293;-54
2021/01/10 12:02:24;;;;;;;6.27;3.57;;;;;;;;;;5113406;28;20252;-54
2021/01/10 12:04:51;;;;;;;6.97;4.83;;;;;;;;;;5113415;28;20294;-55
2021/01/10 12:07:18;;;;;;;7.37;5.20;;;;;;;;;;5113306;28;20244;-55
2021/01/10 12:09:45;;;;;;;8.07;5.03;;;;;;;;;;5113289;28;20623;-55
2021/01/10 12:12:12;;;;;;;9.07;4.70;;;;;;;;;;5113193;28;20281;-55
2021/01/10 12:14:39;;;;;;;7.27;4.50;;;;;;;;;;5113571;27;20780;-54
2021/01/10 12:17:08;;;;;;;5.63;4.10;;;;;;;;;;5113222;28;20256;-55
2021/01/10 12:19:34;;;;;;;8.13;4.47;;;;;;;;;;5113292;28;20256;-55
2021/01/10 12:22:01;;;;;;;8.33;4.00;;;;;;;;;;5113096;28;20299;-55
2021/01/10 12:24:28;;;;;;;8.70;4.57;;;;;;;;;;5113248;28;20309;-55
2021/01/10 12:26:54;;;;;;;6.67;4.20;;;;;;;;;;5113139;28;20263;-55
2021/01/10 12:29:21;;;;;;;9.53;4.80;;;;;;;;;;5113095;28;20252;-55
2021/01/10 12:31:48;;;;;;;8.40;4.50;;;;;;;;;;5113134;28;20252;-55
2021/01/10 12:34:15;;;;;;;6.67;4.93;;;;;;;;;;5113108;28;20280;-55
2021/01/10 12:36:42;;;;;;;6.80;5.03;;;;;;;;;;5112917;28;20255;-55
2021/01/10 12:39:08;;;;;;;8.50;5.37;;;;;;;;;;5094807;28;20750;-54
2021/01/10 12:41:35;;;;;;;7.70;5.00;;;;;;;;;;5113194;28;20630;-54
2021/01/10 12:44:02;;;;;;;11.37;6.63;;;;;;;;;;5113124;28;20622;-55
2021/01/10 12:46:29;;;;;;;8.47;5.47;;;;;;;;;;5112843;28;20247;-54
2021/01/10 12:48:56;;;;;;;12.47;5.50;;;;;;;;;;5095218;28;20297;-54
2021/01/10 12:51:23;;;;;;;8.23;5.00;;;;;;;;;;5112858;28;20244;-54
2021/01/10 12:53:49;;;;;;;7.10;4.97;;;;;;;;;;5112951;28;20256;-55
2021/01/10 12:56:16;;;;;;;9.10;5.90;;;;;;;;;;5112943;28;20255;-55
2021/01/10 12:58:43;;;;;;;8.17;4.97;;;;;;;;;;5113427;28;20331;-55
2021/01/10 13:01:10;;;;;;;8.43;5.50;;;;;;;;;;5116676;28;20642;-54
2021/01/10 13:03:36;;;;;;;6.67;4.90;;;;;;;;;;5116693;28;20671;-55
2021/01/10 13:06:03;;;;;;;11.30;6.53;;;;;;;;;;5116617;28;20256;-54
2021/01/10 13:08:30;;;;;;;8.17;5.77;;;;;;;;;;5116396;28;20252;-54
2021/01/10 13:10:57;;;;;;;10.53;6.80;;;;;;;;;;5116494;28;20610;-54
2021/01/10 13:13:24;;;;;;;10.17;6.10;;;;;;;;;;5116421;28;20333;-54
2021/01/10 13:15:50;;;;;;;8.67;5.17;;;;;;;;;;5116952;27;20275;-55
2021/01/10 13:18:17;;;;;;;8.97;5.57;;;;;;;;;;5116398;28;20609;-55
2021/01/10 13:20:44;;;;;;;9.50;5.03;;;;;;;;;;5116299;28;20310;-55
2021/01/10 13:23:11;;;;;;;9.83;5.23;;;;;;;;;;5116260;28;20252;-55
2021/01/10 13:25:38;;;;;;;7.80;5.37;;;;;;;;;;5116277;28;20266;-55
2021/01/10 13:28:05;;;;;;;8.97;5.40;;;;;;;;;;5116251;28;20302;-55
2021/01/10 13:30:32;;;;;;;8.03;4.93;;;;;;;;;;5116074;28;20313;-55
2021/01/10 13:32:58;;;;;;;8.20;5.47;;;;;;;;;;5116199;28;20240;-55
2021/01/10 13:35:25;;;;;;;7.97;5.40;;;;;;;;;;5116134;28;20260;-55
2021/01/10 13:37:53;;;;;;;7.53;5.00;;;;;;;;;;5116126;28;20259;-55
2021/01/10 13:40:19;;;;;;;5.47;4.20;;;;;;;;;;5115923;28;20359;-55
2021/01/10 13:42:46;;;;;;;7.70;5.30;;;;;;;;;;5115968;28;20335;-54
2021/01/10 13:45:13;;;;;;;9.20;5.20;;;;;;;;;;5115942;28;20248;-54
2021/01/10 13:47:40;;;;;;;10.90;5.67;;;;;;;;;;5115860;28;20260;-54
2021/01/10 13:50:07;;;;;;;13.43;7.90;;;;;;;;;;5115793;28;20248;-54
2021/01/10 13:52:34;;;;;;;16.57;7.60;;;;;;;;;;5115706;28;20256;-55
2021/01/10 13:55:10;;;;;;;35.00;22.83;;;;;;;;;;5115949;28;20275;-55
2021/01/10 13:57:36;;;;;;;24.07;15.50;;;;;;;;;;5115678;28;20264;-55
2021/01/10 14:00:09;;;;;;;29.03;16.63;;;;;;;;;;5115452;28;20252;-54
2021/01/10 14:02:36;;;;;;;47.93;29.03;;;;;;;;;;5115650;28;20607;-55
2021/01/10 14:05:03;;;;;;;28.50;16.17;;;;;;;;;;5115487;28;20254;-55
2021/01/10 14:07:30;;;;;;;22.63;12.40;;;;;;;;;;5115306;28;20276;-55
2021/01/10 14:09:57;;;;;;;39.70;12.07;;;;;;;;;;5114911;28;20311;-55
2021/01/10 14:12:24;;;;;;;18.67;10.80;;;;;;;;;;5115443;28;20348;-55
2021/01/10 14:14:52;;;;;;;20.17;11.03;;;;;;;;;;5115756;27;20287;-55
2021/01/10 14:17:18;;;;;;;23.90;11.30;;;;;;;;;;5115210;28;20295;-55
2021/01/10 14:19:45;;;;;;;18.50;12.50;;;;;;;;;;5115154;28;20256;-55
2021/01/10 14:22:12;;;;;;;22.73;12.10;;;;;;;;;;5115090;28;20287;-55
2021/01/10 14:24:40;;;;;;;20.17;11.40;;;;;;;;;;5115038;28;20284;-55
2021/01/10 14:27:06;;;;;;;16.73;11.10;;;;;;;;;;5115072;28;20335;-55
2021/01/10 14:29:33;;;;;;;18.17;11.23;;;;;;;;;;5115077;28;20580;-55
2021/01/10 14:32:00;;;;;;;16.90;11.20;;;;;;;;;;5114907;28;20248;-55
2021/01/10 14:34:27;;;;;;;15.10;10.07;;;;;;;;;;5115057;28;20275;-55
2021/01/10 14:36:55;;;;;;;16.27;9.67;;;;;;;;;;5114806;28;20248;-55
2021/01/10 14:39:22;;;;;;;19.60;10.33;;;;;;;;;;5114776;28;20028;-56
2021/01/10 14:41:49;;;;;;;15.00;9.40;;;;;;;;;;5114793;28;20616;-56
2021/01/10 14:44:16;;;;;;;13.50;9.37;;;;;;;;;;5114763;28;20020;-55
2021/01/10 14:46:43;;;;;;;15.93;9.87;;;;;;;;;;5114576;28;20111;-55
2021/01/10 14:49:11;;;;;;;13.13;9.43;;;;;;;;;;5114672;28;20204;-55
2021/01/10 14:51:38;;;;;;;11.73;7.50;;;;;;;;;;5114529;28;20032;-55